Time;durP1;ratioP1;P1;durP2;ratioP2;P2;SDS_P1;SDS_P2;PMS_P1;PMS_P2;Temp;Humidity;BMP_temperature;BMP_pressure;BME280_temperature;BME280_humidity;BME280_pressure;Samples;Min_cycle;Max_cycle;Signal;HPM_P1;HPM_P2
2023/09/06 00:00:51;;;;;;;5.30;2.70;;;;;;;;;;5074243;28;20332;-68
2023/09/06 00:03:17;;;;;;;4.43;2.75;;;;;;;;;;5082333;28;20077;-69
2023/09/06 00:05:42;;;;;;;6.10;3.60;;;;;;;;;;5064293;28;20036;-69
2023/09/06 00:08:08;;;;;;;5.70;2.90;;;;;;;;;;5075146;28;20020;-69
2023/09/06 00:10:34;;;;;;;4.25;2.92;;;;;;;;;;5074168;28;20117;-69
2023/09/06 00:12:59;;;;;;;5.28;2.95;;;;;;;;;;5082435;28;20021;-69
2023/09/06 00:15:25;;;;;;;4.03;2.90;;;;;;;;;;5084220;28;20486;-69
2023/09/06 00:17:50;;;;;;;5.22;3.58;;;;;;;;;;5076206;28;20269;-70
2023/09/06 00:20:19;;;;;;;5.95;2.90;;;;;;;;;;5078876;28;20017;-70
2023/09/06 00:22:45;;;;;;;6.57;3.10;;;;;;;;;;5086019;28;20020;-70
2023/09/06 00:25:11;;;;;;;6.70;3.15;;;;;;;;;;5091882;28;20028;-70
2023/09/06 00:27:36;;;;;;;5.13;3.00;;;;;;;;;;5080791;28;20020;-70
2023/09/06 00:30:01;;;;;;;4.13;3.03;;;;;;;;;;5081744;28;20278;-70
2023/09/06 00:32:27;;;;;;;7.32;3.17;;;;;;;;;;5088256;28;20274;-69
2023/09/06 00:34:52;;;;;;;6.03;3.38;;;;;;;;;;5083835;28;20031;-70
2023/09/06 00:37:18;;;;;;;5.47;2.93;;;;;;;;;;5081301;28;20467;-70
2023/09/06 00:39:43;;;;;;;4.60;2.70;;;;;;;;;;5087870;28;20274;-70
2023/09/06 00:42:09;;;;;;;5.93;3.22;;;;;;;;;;5084777;28;20278;-70
2023/09/06 00:44:35;;;;;;;4.38;2.83;;;;;;;;;;5080467;28;20052;-70
2023/09/06 00:47:00;;;;;;;4.45;3.03;;;;;;;;;;5075063;28;20017;-70
2023/09/06 00:49:25;;;;;;;5.13;3.22;;;;;;;;;;5080831;28;20024;-70
2023/09/06 00:51:51;;;;;;;6.75;3.35;;;;;;;;;;5080555;28;20020;-71
2023/09/06 00:54:16;;;;;;;6.28;3.17;;;;;;;;;;5078954;28;20024;-70
2023/09/06 00:56:41;;;;;;;4.93;3.05;;;;;;;;;;5076481;28;20027;-70
2023/09/06 00:59:10;;;;;;;6.20;2.88;;;;;;;;;;5082350;28;20020;-70
2023/09/06 01:01:35;;;;;;;5.68;3.28;;;;;;;;;;5087803;28;20090;-70
2023/09/06 01:04:01;;;;;;;5.20;2.90;;;;;;;;;;5085845;28;20457;-70
2023/09/06 01:06:27;;;;;;;5.30;3.17;;;;;;;;;;5080904;28;20024;-70
2023/09/06 01:08:57;;;;;;;8.45;3.13;;;;;;;;;;5083666;28;20054;-69
2023/09/06 01:11:23;;;;;;;6.30;3.22;;;;;;;;;;5080232;28;20479;-69
2023/09/06 01:13:50;;;;;;;8.52;3.15;;;;;;;;;;5078963;28;20025;-69
2023/09/06 01:16:30;;;;;;;10.18;3.30;;;;;;;;;;5084932;28;20020;-69
2023/09/06 01:18:56;;;;;;;4.70;3.25;;;;;;;;;;5084522;28;20024;-69
2023/09/06 01:21:24;;;;;;;5.25;3.70;;;;;;;;;;5091860;28;20031;-69
2023/09/06 01:23:51;;;;;;;5.32;3.45;;;;;;;;;;5091569;28;20035;-69
2023/09/06 01:26:17;;;;;;;5.20;3.58;;;;;;;;;;5090211;28;20425;-70
2023/09/06 01:28:42;;;;;;;4.90;3.05;;;;;;;;;;5091229;28;20032;-69
2023/09/06 01:31:08;;;;;;;4.00;2.67;;;;;;;;;;5090368;28;20352;-70
2023/09/06 01:33:33;;;;;;;6.10;3.40;;;;;;;;;;5090767;28;20379;-70
2023/09/06 01:35:58;;;;;;;4.50;2.80;;;;;;;;;;5091168;28;20321;-70
2023/09/06 01:38:24;;;;;;;8.48;3.67;;;;;;;;;;5091662;28;20282;-69
2023/09/06 01:40:49;;;;;;;5.70;3.42;;;;;;;;;;5091640;28;20042;-69
2023/09/06 01:43:14;;;;;;;6.17;3.07;;;;;;;;;;5079047;28;20368;-69
2023/09/06 01:45:51;;;;;;;5.57;3.43;;;;;;;;;;5089867;28;20331;-69
2023/09/06 01:48:16;;;;;;;4.20;3.28;;;;;;;;;;5089339;28;20308;-69
2023/09/06 01:50:42;;;;;;;5.40;3.03;;;;;;;;;;5078923;28;20110;-69
2023/09/06 01:53:07;;;;;;;4.13;2.73;;;;;;;;;;5090909;28;20020;-69
2023/09/06 01:55:32;;;;;;;11.50;2.80;;;;;;;;;;5089149;28;20261;-70
2023/09/06 01:57:57;;;;;;;6.67;3.27;;;;;;;;;;5088778;28;20028;-69
2023/09/06 02:00:31;;;;;;;5.77;3.10;;;;;;;;;;5090071;28;20262;-69
2023/09/06 02:02:56;;;;;;;4.53;2.65;;;;;;;;;;5087245;28;20343;-69
2023/09/06 02:05:22;;;;;;;5.95;2.92;;;;;;;;;;5090099;28;20028;-69
2023/09/06 02:07:48;;;;;;;5.75;3.00;;;;;;;;;;5087450;28;20428;-69
2023/09/06 02:10:13;;;;;;;5.43;3.17;;;;;;;;;;5078449;28;20027;-69
2023/09/06 02:12:38;;;;;;;4.45;3.00;;;;;;;;;;5087849;28;20066;-69
2023/09/06 02:15:05;;;;;;;4.40;3.08;;;;;;;;;;5079007;28;20020;-70
2023/09/06 02:17:30;;;;;;;5.00;3.15;;;;;;;;;;5078072;28;20070;-70
2023/09/06 02:19:56;;;;;;;4.47;2.80;;;;;;;;;;5072279;28;20787;-70
2023/09/06 02:22:21;;;;;;;5.97;3.10;;;;;;;;;;5085110;28;20035;-70
2023/09/06 02:24:46;;;;;;;8.03;3.00;;;;;;;;;;5072227;28;20274;-70
2023/09/06 02:27:12;;;;;;;6.10;2.77;;;;;;;;;;5072207;28;20365;-71
2023/09/06 02:29:38;;;;;;;5.07;3.08;;;;;;;;;;5071451;28;20354;-70
2023/09/06 02:32:03;;;;;;;4.80;3.35;;;;;;;;;;5071656;28;20127;-70
2023/09/06 02:34:28;;;;;;;4.43;3.35;;;;;;;;;;5091577;28;20390;-70
2023/09/06 02:36:54;;;;;;;4.13;2.90;;;;;;;;;;5091681;28;20110;-70
2023/09/06 02:39:19;;;;;;;4.63;3.10;;;;;;;;;;5084395;28;20279;-70
2023/09/06 02:41:46;;;;;;;4.45;3.03;;;;;;;;;;5084944;28;20069;-70
2023/09/06 02:44:12;;;;;;;4.93;3.10;;;;;;;;;;5084458;28;20444;-70
2023/09/06 02:46:38;;;;;;;5.72;3.42;;;;;;;;;;5083218;28;20035;-70
2023/09/06 02:49:11;;;;;;;5.22;3.20;;;;;;;;;;5090124;28;20077;-70
2023/09/06 02:51:42;;;;;;;4.88;3.60;;;;;;;;;;5089311;28;20020;-71
2023/09/06 02:54:08;;;;;;;6.80;3.63;;;;;;;;;;5073472;28;20029;-70
2023/09/06 02:56:37;;;;;;;4.85;3.22;;;;;;;;;;5084604;28;20043;-70
2023/09/06 02:59:03;;;;;;;5.68;3.70;;;;;;;;;;5073583;28;20036;-71
2023/09/06 03:01:30;;;;;;;5.38;3.30;;;;;;;;;;5083724;28;20031;-71
2023/09/06 03:03:57;;;;;;;5.03;2.92;;;;;;;;;;5089464;28;20491;-71
2023/09/06 03:06:32;;;;;;;5.63;3.08;;;;;;;;;;5089332;28;20020;-70
2023/09/06 03:08:59;;;;;;;4.85;2.97;;;;;;;;;;5089617;28;20502;-70
2023/09/06 03:11:24;;;;;;;5.13;3.28;;;;;;;;;;5072515;28;20413;-70
2023/09/06 03:13:55;;;;;;;4.82;3.17;;;;;;;;;;5090965;28;20036;-70
2023/09/06 03:16:22;;;;;;;5.15;3.20;;;;;;;;;;5077544;28;20024;-70
2023/09/06 03:18:49;;;;;;;4.85;3.00;;;;;;;;;;5083307;28;20025;-70
2023/09/06 03:21:16;;;;;;;3.90;2.67;;;;;;;;;;5070942;28;20092;-70
2023/09/06 03:23:44;;;;;;;5.13;3.00;;;;;;;;;;5078903;28;20131;-71
2023/09/06 03:26:10;;;;;;;5.72;3.63;;;;;;;;;;5090459;28;20047;-70
2023/09/06 03:28:41;;;;;;;5.70;3.30;;;;;;;;;;5076051;28;20498;-69
2023/09/06 03:31:09;;;;;;;5.20;3.38;;;;;;;;;;5071338;28;20029;-69
2023/09/06 03:33:35;;;;;;;4.78;3.25;;;;;;;;;;5070799;28;20054;-69
2023/09/06 03:36:07;;;;;;;4.88;3.25;;;;;;;;;;5071052;28;20048;-70
2023/09/06 03:38:32;;;;;;;3.17;2.33;;;;;;;;;;5071404;28;20036;-69
2023/09/06 03:41:02;;;;;;;5.35;3.40;;;;;;;;;;5074819;28;20475;-69
2023/09/06 03:43:30;;;;;;;4.55;2.85;;;;;;;;;;5073683;28;20052;-69
2023/09/06 03:45:58;;;;;;;4.85;3.30;;;;;;;;;;5074377;28;20429;-69
2023/09/06 03:48:25;;;;;;;6.70;3.10;;;;;;;;;;5074217;28;20035;-70
2023/09/06 03:50:57;;;;;;;6.55;3.30;;;;;;;;;;5068326;28;20493;-71
2023/09/06 03:53:26;;;;;;;4.70;2.90;;;;;;;;;;5093632;28;20027;-71
2023/09/06 03:56:00;;;;;;;5.95;3.03;;;;;;;;;;5091849;28;20510;-71
2023/09/06 03:58:25;;;;;;;4.72;3.42;;;;;;;;;;5075000;28;20052;-70
2023/09/06 04:00:51;;;;;;;5.57;3.50;;;;;;;;;;5075313;28;20052;-70
2023/09/06 04:03:18;;;;;;;6.90;3.08;;;;;;;;;;5074134;28;20033;-70
2023/09/06 04:05:44;;;;;;;5.72;3.33;;;;;;;;;;5074027;28;20087;-70
2023/09/06 04:08:09;;;;;;;4.60;3.00;;;;;;;;;;5073979;28;20040;-70
2023/09/06 04:10:36;;;;;;;7.85;3.17;;;;;;;;;;5074311;28;20029;-70
2023/09/06 04:13:08;;;;;;;4.90;3.13;;;;;;;;;;5087191;28;20071;-70
2023/09/06 04:15:40;;;;;;;4.10;2.83;;;;;;;;;;5069403;28;20097;-69
2023/09/06 04:18:06;;;;;;;6.57;3.38;;;;;;;;;;5080517;28;20028;-71
2023/09/06 04:20:36;;;;;;;4.80;3.08;;;;;;;;;;5090290;28;20024;-70
2023/09/06 04:23:04;;;;;;;5.18;3.50;;;;;;;;;;5093681;28;20383;-69
2023/09/06 04:25:30;;;;;;;5.38;3.47;;;;;;;;;;5090193;28;20141;-70
2023/09/06 04:27:55;;;;;;;5.22;3.38;;;;;;;;;;5078419;28;20111;-70
2023/09/06 04:30:28;;;;;;;4.57;3.00;;;;;;;;;;5089222;28;20572;-71
2023/09/06 04:32:53;;;;;;;3.95;2.70;;;;;;;;;;5089209;28;20390;-71
2023/09/06 04:35:18;;;;;;;5.85;3.00;;;;;;;;;;5077718;28;20055;-71
2023/09/06 04:37:44;;;;;;;4.72;3.35;;;;;;;;;;5082302;28;20103;-71
2023/09/06 04:40:12;;;;;;;6.70;3.47;;;;;;;;;;5088428;28;20024;-70
2023/09/06 04:42:39;;;;;;;5.65;3.50;;;;;;;;;;5084184;28;20107;-70
2023/09/06 04:45:05;;;;;;;7.50;3.63;;;;;;;;;;5073490;28;20044;-70
2023/09/06 04:47:30;;;;;;;4.22;2.88;;;;;;;;;;5073384;28;20021;-70
2023/09/06 04:49:55;;;;;;;4.53;3.17;;;;;;;;;;5089212;28;20389;-70
2023/09/06 04:52:22;;;;;;;5.68;3.75;;;;;;;;;;5093437;28;20590;-71
2023/09/06 04:54:47;;;;;;;4.82;3.40;;;;;;;;;;5093153;28;20020;-70
2023/09/06 04:57:13;;;;;;;5.93;3.70;;;;;;;;;;5093275;28;20089;-70
2023/09/06 04:59:39;;;;;;;9.85;3.47;;;;;;;;;;5086726;28;20095;-71
2023/09/06 05:02:04;;;;;;;5.20;3.00;;;;;;;;;;5081942;28;20456;-71
2023/09/06 05:04:30;;;;;;;4.97;3.05;;;;;;;;;;5057110;28;20033;-69
2023/09/06 05:06:55;;;;;;;5.07;3.25;;;;;;;;;;5083804;28;20028;-70
2023/09/06 05:09:21;;;;;;;6.63;3.13;;;;;;;;;;5073264;28;20418;-70
2023/09/06 05:11:47;;;;;;;4.72;3.30;;;;;;;;;;5073160;28;20391;-69
2023/09/06 05:14:12;;;;;;;5.55;3.25;;;;;;;;;;5072648;28;20021;-70
2023/09/06 05:16:37;;;;;;;5.17;3.17;;;;;;;;;;5073187;28;20035;-70
2023/09/06 05:19:02;;;;;;;4.57;3.23;;;;;;;;;;5080099;28;20293;-69
2023/09/06 05:21:28;;;;;;;5.32;3.42;;;;;;;;;;5083961;28;20283;-70
2023/09/06 05:23:53;;;;;;;4.90;3.67;;;;;;;;;;5079964;28;20067;-70
2023/09/06 05:26:18;;;;;;;7.60;3.60;;;;;;;;;;5081579;28;20019;-70
2023/09/06 05:28:43;;;;;;;5.22;4.13;;;;;;;;;;5085592;28;20047;-70
2023/09/06 05:31:09;;;;;;;4.87;3.00;;;;;;;;;;5082123;28;20095;-70
2023/09/06 05:33:34;;;;;;;4.70;3.30;;;;;;;;;;5084623;28;20266;-70
2023/09/06 05:35:59;;;;;;;5.82;3.75;;;;;;;;;;5081899;28;20597;-70
2023/09/06 05:38:25;;;;;;;5.97;3.28;;;;;;;;;;5085177;28;20028;-70
2023/09/06 05:40:50;;;;;;;5.78;3.55;;;;;;;;;;5081486;28;20028;-70
2023/09/06 05:43:15;;;;;;;5.35;3.72;;;;;;;;;;5085047;28;20027;-70
2023/09/06 05:45:41;;;;;;;5.07;3.72;;;;;;;;;;5079948;28;20040;-70
2023/09/06 05:48:07;;;;;;;5.38;3.88;;;;;;;;;;5084091;28;20016;-70
2023/09/06 05:50:32;;;;;;;6.65;4.10;;;;;;;;;;5079572;28;20020;-71
2023/09/06 05:52:57;;;;;;;5.80;3.97;;;;;;;;;;5091180;28;20028;-70
2023/09/06 05:55:22;;;;;;;6.32;4.45;;;;;;;;;;5080539;28;20270;-70
2023/09/06 05:57:48;;;;;;;6.80;3.90;;;;;;;;;;5085543;28;20597;-70
2023/09/06 06:00:15;;;;;;;5.13;4.07;;;;;;;;;;5081147;28;20499;-70
2023/09/06 06:02:41;;;;;;;6.10;4.22;;;;;;;;;;5076725;28;20165;-70
2023/09/06 06:05:07;;;;;;;6.15;4.20;;;;;;;;;;5072147;28;20036;-70
2023/09/06 06:07:32;;;;;;;7.35;4.32;;;;;;;;;;5085180;28;20024;-70
2023/09/06 06:09:57;;;;;;;5.82;4.00;;;;;;;;;;5076328;28;20056;-70
2023/09/06 06:12:24;;;;;;;5.90;3.83;;;;;;;;;;5078817;28;20032;-70
2023/09/06 06:14:50;;;;;;;5.43;4.35;;;;;;;;;;5072658;28;20040;-70
2023/09/06 06:17:15;;;;;;;6.43;5.13;;;;;;;;;;5072404;28;20020;-70
2023/09/06 06:19:41;;;;;;;6.00;3.93;;;;;;;;;;5085376;28;20032;-70
2023/09/06 06:22:06;;;;;;;7.57;4.70;;;;;;;;;;5072887;28;20337;-70
2023/09/06 06:24:33;;;;;;;6.20;4.28;;;;;;;;;;5077019;28;20361;-70
2023/09/06 06:26:58;;;;;;;6.47;4.50;;;;;;;;;;5090554;28;20107;-70
2023/09/06 06:29:24;;;;;;;7.82;5.10;;;;;;;;;;5087749;28;20112;-70
2023/09/06 06:31:49;;;;;;;8.55;4.80;;;;;;;;;;5079673;28;20493;-71
2023/09/06 06:34:17;;;;;;;5.50;4.50;;;;;;;;;;5072659;28;20028;-70
2023/09/06 06:36:42;;;;;;;8.25;4.97;;;;;;;;;;5072697;28;20103;-70
2023/09/06 06:39:10;;;;;;;6.53;4.80;;;;;;;;;;5080455;28;20433;-70
2023/09/06 06:41:35;;;;;;;5.55;4.15;;;;;;;;;;5071932;28;20119;-71
2023/09/06 06:44:00;;;;;;;7.37;5.10;;;;;;;;;;5074660;28;20088;-71
2023/09/06 06:46:29;;;;;;;6.03;4.80;;;;;;;;;;5075712;28;20332;-70
2023/09/06 06:48:55;;;;;;;7.75;5.65;;;;;;;;;;5083848;28;20079;-71
2023/09/06 06:51:21;;;;;;;7.55;4.85;;;;;;;;;;5072249;28;20103;-71
2023/09/06 06:53:46;;;;;;;7.45;5.53;;;;;;;;;;5072754;28;20527;-71
2023/09/06 06:56:12;;;;;;;8.68;6.03;;;;;;;;;;5072739;28;20036;-71
2023/09/06 06:58:37;;;;;;;8.07;6.25;;;;;;;;;;5073582;28;20052;-71
2023/09/06 07:01:03;;;;;;;10.65;6.95;;;;;;;;;;5071668;28;20017;-71
2023/09/06 07:03:29;;;;;;;10.43;6.78;;;;;;;;;;5071185;28;20108;-70
2023/09/06 07:05:54;;;;;;;9.98;6.53;;;;;;;;;;5071804;28;20021;-69
2023/09/06 07:08:20;;;;;;;10.00;6.55;;;;;;;;;;5082971;28;20044;-69
2023/09/06 07:10:45;;;;;;;10.88;5.78;;;;;;;;;;5066371;28;20519;-69
2023/09/06 07:13:11;;;;;;;8.10;5.88;;;;;;;;;;5080260;28;20043;-69
2023/09/06 07:15:36;;;;;;;8.90;5.47;;;;;;;;;;5090104;28;20027;-70
2023/09/06 07:18:06;;;;;;;12.87;5.67;;;;;;;;;;5088161;28;20471;-72
2023/09/06 07:20:32;;;;;;;12.73;6.55;;;;;;;;;;5091113;28;20361;-71
2023/09/06 07:22:57;;;;;;;8.02;5.57;;;;;;;;;;5088490;28;20106;-70
2023/09/06 07:25:23;;;;;;;8.75;5.05;;;;;;;;;;5081256;28;20032;-71
2023/09/06 07:27:48;;;;;;;10.13;5.10;;;;;;;;;;5081750;28;20090;-70
2023/09/06 07:30:13;;;;;;;7.30;4.97;;;;;;;;;;5093029;28;20278;-71
2023/09/06 07:32:38;;;;;;;8.85;4.50;;;;;;;;;;5075051;28;20425;-70
2023/09/06 07:35:05;;;;;;;9.02;5.25;;;;;;;;;;5087678;28;20516;-70
2023/09/06 07:37:31;;;;;;;7.57;4.60;;;;;;;;;;5074326;28;20469;-70
2023/09/06 07:39:57;;;;;;;8.03;4.37;;;;;;;;;;5074069;28;20107;-70
2023/09/06 07:42:23;;;;;;;8.95;4.50;;;;;;;;;;5077709;28;20298;-70
2023/09/06 07:44:48;;;;;;;9.43;4.93;;;;;;;;;;5078945;28;20396;-70
2023/09/06 07:47:13;;;;;;;10.32;5.10;;;;;;;;;;5093929;28;20353;-70
2023/09/06 07:49:38;;;;;;;9.90;5.70;;;;;;;;;;5092464;28;20032;-70
2023/09/06 07:52:05;;;;;;;8.30;5.07;;;;;;;;;;5047065;28;21190;-70
2023/09/06 07:54:30;;;;;;;6.90;4.40;;;;;;;;;;5036126;28;20483;-69
2023/09/06 07:56:55;;;;;;;6.70;4.93;;;;;;;;;;5043225;28;20563;-70
2023/09/06 07:59:21;;;;;;;9.00;4.83;;;;;;;;;;5050268;28;20028;-70
2023/09/06 08:01:47;;;;;;;12.55;4.95;;;;;;;;;;5086713;28;20726;-69
2023/09/06 08:04:12;;;;;;;9.95;4.55;;;;;;;;;;5073518;28;20036;-70
2023/09/06 08:06:37;;;;;;;6.97;4.60;;;;;;;;;;5073664;28;20085;-70
2023/09/06 08:09:02;;;;;;;9.07;4.80;;;;;;;;;;5074085;28;20491;-70
2023/09/06 08:11:28;;;;;;;10.23;4.80;;;;;;;;;;5086934;28;20026;-70
2023/09/06 08:13:54;;;;;;;9.67;4.83;;;;;;;;;;5073388;28;20388;-70
2023/09/06 08:16:19;;;;;;;9.05;4.28;;;;;;;;;;5078722;28;20330;-70
2023/09/06 08:18:46;;;;;;;7.40;4.87;;;;;;;;;;5081538;28;20056;-70
2023/09/06 08:21:11;;;;;;;5.95;4.20;;;;;;;;;;5073161;28;20325;-70
2023/09/06 08:23:36;;;;;;;6.88;3.85;;;;;;;;;;5032399;28;20024;-70
2023/09/06 08:26:03;;;;;;;5.33;3.23;;;;;;;;;;5044077;28;20026;-70
2023/09/06 08:28:29;;;;;;;5.63;3.50;;;;;;;;;;5036544;28;21325;-70
2023/09/06 08:30:54;;;;;;;5.85;3.28;;;;;;;;;;5058358;28;20027;-70
2023/09/06 08:33:19;;;;;;;4.30;2.70;;;;;;;;;;5077373;28;20021;-70
2023/09/06 08:35:44;;;;;;;3.87;2.40;;;;;;;;;;5078529;28;20055;-70
2023/09/06 08:38:10;;;;;;;5.43;2.72;;;;;;;;;;5092905;28;20258;-70
2023/09/06 08:40:35;;;;;;;7.07;2.72;;;;;;;;;;5092261;28;20043;-70
2023/09/06 08:43:03;;;;;;;5.38;2.47;;;;;;;;;;5093326;28;20031;-70
2023/09/06 08:45:29;;;;;;;5.80;2.80;;;;;;;;;;5085301;28;20032;-70
2023/09/06 08:47:55;;;;;;;6.22;2.85;;;;;;;;;;5073342;28;20081;-70
2023/09/06 08:50:20;;;;;;;4.80;2.88;;;;;;;;;;5066208;28;20020;-70
2023/09/06 08:52:45;;;;;;;6.35;3.05;;;;;;;;;;5049361;28;20132;-70
2023/09/06 08:55:11;;;;;;;5.75;2.92;;;;;;;;;;5066599;28;20031;-69
2023/09/06 08:57:37;;;;;;;7.95;3.08;;;;;;;;;;5040939;28;20134;-69
2023/09/06 09:00:03;;;;;;;7.35;3.30;;;;;;;;;;5034693;28;20028;-70
2023/09/06 09:02:29;;;;;;;6.43;4.18;;;;;;;;;;5013419;28;20028;-70
2023/09/06 09:04:54;;;;;;;4.97;3.13;;;;;;;;;;5031352;28;20020;-70
2023/09/06 09:07:20;;;;;;;8.20;3.53;;;;;;;;;;5030392;28;20020;-69
2023/09/06 09:09:59;;;;;;;7.82;3.78;;;;;;;;;;5046503;28;20266;-70
2023/09/06 09:12:28;;;;;;;8.75;4.03;;;;;;;;;;5043306;28;20140;-70
2023/09/06 09:14:54;;;;;;;5.50;3.50;;;;;;;;;;5046406;28;20078;-70
2023/09/06 09:17:21;;;;;;;6.35;3.65;;;;;;;;;;5039426;28;20875;-69
2023/09/06 09:19:54;;;;;;;5.85;3.58;;;;;;;;;;5040830;28;20423;-70
2023/09/06 09:22:23;;;;;;;7.55;3.72;;;;;;;;;;5043917;28;20226;-68
2023/09/06 09:24:48;;;;;;;7.13;3.20;;;;;;;;;;5043452;28;20908;-69
2023/09/06 09:27:13;;;;;;;5.00;3.27;;;;;;;;;;5045460;28;20016;-69
2023/09/06 09:29:39;;;;;;;3.90;2.63;;;;;;;;;;5043166;28;20271;-69
2023/09/06 09:32:04;;;;;;;5.70;3.20;;;;;;;;;;5046862;28;20315;-70
2023/09/06 09:34:30;;;;;;;5.13;2.78;;;;;;;;;;5038149;28;20031;-69
2023/09/06 09:36:55;;;;;;;5.07;3.00;;;;;;;;;;5042828;28;20928;-69
2023/09/06 09:39:26;;;;;;;8.50;3.37;;;;;;;;;;5033608;28;20028;-69
2023/09/06 09:41:52;;;;;;;8.57;3.28;;;;;;;;;;5046822;28;20273;-69
2023/09/06 09:44:19;;;;;;;3.97;2.80;;;;;;;;;;5080782;28;20032;-69
2023/09/06 09:46:45;;;;;;;6.15;3.47;;;;;;;;;;5082200;28;20033;-69
2023/09/06 09:49:11;;;;;;;6.18;2.70;;;;;;;;;;5085539;28;20485;-70
2023/09/06 09:51:37;;;;;;;5.03;2.72;;;;;;;;;;5080017;28;20032;-70
2023/09/06 09:54:03;;;;;;;7.13;3.13;;;;;;;;;;5079591;28;20095;-71
2023/09/06 09:56:30;;;;;;;4.13;2.47;;;;;;;;;;5088368;28;20024;-70
2023/09/06 09:59:04;;;;;;;6.85;3.08;;;;;;;;;;5132320;27;20200;-70
2023/09/06 10:01:31;;;;;;;3.17;2.47;;;;;;;;;;5084066;28;20020;-71
2023/09/06 10:03:57;;;;;;;6.10;2.88;;;;;;;;;;5084164;27;20462;-71
2023/09/06 10:06:24;;;;;;;3.63;2.65;;;;;;;;;;5074141;27;20034;-70
2023/09/06 10:08:51;;;;;;;4.50;2.70;;;;;;;;;;5107283;28;20095;-71
2023/09/06 10:11:17;;;;;;;7.30;3.03;;;;;;;;;;5126013;28;20011;-70
2023/09/06 10:13:43;;;;;;;4.55;3.03;;;;;;;;;;5116864;28;20019;-71
2023/09/06 10:16:08;;;;;;;5.63;3.17;;;;;;;;;;5116491;28;20117;-70
2023/09/06 10:18:34;;;;;;;6.55;2.88;;;;;;;;;;5117393;28;20547;-70
2023/09/06 10:21:04;;;;;;;4.38;2.47;;;;;;;;;;5110011;27;20028;-69
2023/09/06 10:23:31;;;;;;;5.20;2.90;;;;;;;;;;5108656;28;20027;-70
2023/09/06 10:25:59;;;;;;;4.55;3.35;;;;;;;;;;5112591;28;20031;-70
2023/09/06 10:28:24;;;;;;;5.43;3.72;;;;;;;;;;5128331;28;20027;-70
2023/09/06 10:30:54;;;;;;;5.77;3.70;;;;;;;;;;5114454;28;20432;-70
2023/09/06 10:33:28;;;;;;;4.70;3.25;;;;;;;;;;5128213;28;20341;-71
2023/09/06 10:35:57;;;;;;;5.70;3.50;;;;;;;;;;5115238;28;20031;-70
2023/09/06 10:38:22;;;;;;;4.25;2.97;;;;;;;;;;5096595;28;20028;-70
2023/09/06 10:40:50;;;;;;;5.13;3.35;;;;;;;;;;5120655;28;20019;-69
2023/09/06 10:43:16;;;;;;;5.95;3.47;;;;;;;;;;5113760;28;20077;-70
2023/09/06 10:45:58;;;;;;;5.90;3.15;;;;;;;;;;5111664;28;20012;-69
2023/09/06 10:48:25;;;;;;;5.95;3.55;;;;;;;;;;5107649;28;20049;-69
2023/09/06 10:51:04;;;;;;;4.28;2.85;;;;;;;;;;5117143;28;20474;-69
2023/09/06 10:53:29;;;;;;;4.32;3.10;;;;;;;;;;5125110;28;20015;-69
2023/09/06 10:55:55;;;;;;;4.95;3.22;;;;;;;;;;5126418;28;20492;-69
2023/09/06 10:58:23;;;;;;;4.80;2.60;;;;;;;;;;5123630;28;20024;-68
2023/09/06 11:01:08;;;;;;;4.68;2.67;;;;;;;;;;5125428;28;20382;-69
2023/09/06 11:03:34;;;;;;;5.07;2.78;;;;;;;;;;5115898;28;20118;-69
2023/09/06 11:05:59;;;;;;;6.27;2.77;;;;;;;;;;5126589;28;20106;-69
2023/09/06 11:08:29;;;;;;;5.03;3.08;;;;;;;;;;5125347;28;20270;-69
2023/09/06 11:11:02;;;;;;;5.45;3.22;;;;;;;;;;5113577;28;20085;-69
2023/09/06 11:13:30;;;;;;;4.50;2.72;;;;;;;;;;5113858;28;20034;-69
2023/09/06 11:15:55;;;;;;;6.40;3.10;;;;;;;;;;5113140;28;20031;-69
2023/09/06 11:18:21;;;;;;;6.55;3.13;;;;;;;;;;5113733;28;20035;-69
2023/09/06 11:20:47;;;;;;;4.00;2.57;;;;;;;;;;5111826;28;20028;-69
2023/09/06 11:23:12;;;;;;;4.05;2.30;;;;;;;;;;5112897;28;20348;-69
2023/09/06 11:25:38;;;;;;;4.83;2.77;;;;;;;;;;5111487;28;20654;-69
2023/09/06 11:28:13;;;;;;;4.90;2.60;;;;;;;;;;5112692;28;20596;-69
2023/09/06 11:30:39;;;;;;;5.00;2.67;;;;;;;;;;5111199;28;20031;-68
2023/09/06 11:33:07;;;;;;;4.03;2.50;;;;;;;;;;5112065;28;20031;-69
2023/09/06 11:35:37;;;;;;;3.95;2.35;;;;;;;;;;5112081;28;20076;-69
2023/09/06 11:38:03;;;;;;;5.18;2.78;;;;;;;;;;5113148;28;20038;-69
2023/09/06 11:40:31;;;;;;;5.07;2.67;;;;;;;;;;5107730;28;20890;-69
2023/09/06 11:43:10;;;;;;;4.43;2.45;;;;;;;;;;5093780;28;20024;-69
2023/09/06 11:45:35;;;;;;;3.72;2.35;;;;;;;;;;5093101;28;20024;-68
2023/09/06 11:48:07;;;;;;;4.10;2.30;;;;;;;;;;5095111;28;20043;-69
2023/09/06 11:50:34;;;;;;;4.60;2.95;;;;;;;;;;5095585;28;20020;-70
2023/09/06 11:53:04;;;;;;;5.25;2.78;;;;;;;;;;5097708;28;20115;-69
2023/09/06 11:55:32;;;;;;;4.32;2.50;;;;;;;;;;5098053;28;20146;-70
2023/09/06 11:57:57;;;;;;;3.53;2.03;;;;;;;;;;5106678;28;20032;-69
2023/09/06 12:00:27;;;;;;;4.63;2.13;;;;;;;;;;5104111;28;20106;-69
2023/09/06 12:03:13;;;;;;;3.72;2.10;;;;;;;;;;5099714;28;20028;-69
2023/09/06 12:06:07;;;;;;;5.90;2.47;;;;;;;;;;5100152;28;20044;-70
2023/09/06 12:08:33;;;;;;;3.53;2.20;;;;;;;;;;5091493;28;20036;-69
2023/09/06 12:11:06;;;;;;;4.22;2.45;;;;;;;;;;5105763;28;20027;-70
2023/09/06 12:13:34;;;;;;;3.45;2.47;;;;;;;;;;5102322;28;20530;-69
2023/09/06 12:15:59;;;;;;;3.90;2.38;;;;;;;;;;5112308;28;20019;-71
2023/09/06 12:18:26;;;;;;;3.63;2.10;;;;;;;;;;5112663;28;20042;-70
2023/09/06 12:20:51;;;;;;;3.28;2.22;;;;;;;;;;5107867;28;20286;-69
2023/09/06 12:23:25;;;;;;;3.37;2.03;;;;;;;;;;5092006;28;20089;-69
2023/09/06 12:25:51;;;;;;;3.67;1.92;;;;;;;;;;5092713;28;20049;-69
2023/09/06 12:28:16;;;;;;;3.07;1.80;;;;;;;;;;5092858;28;20059;-69
2023/09/06 12:30:41;;;;;;;5.70;2.00;;;;;;;;;;5106060;28;20020;-70
2023/09/06 12:33:06;;;;;;;5.15;2.13;;;;;;;;;;5102190;28;20458;-69
2023/09/06 12:35:38;;;;;;;3.90;2.03;;;;;;;;;;5096233;28;20048;-70
2023/09/06 12:38:04;;;;;;;3.88;2.13;;;;;;;;;;5094316;28;20036;-70
2023/09/06 12:40:31;;;;;;;4.85;2.22;;;;;;;;;;5095868;28;20363;-70
2023/09/06 12:42:57;;;;;;;3.85;2.00;;;;;;;;;;5094227;28;20016;-69
2023/09/06 12:45:29;;;;;;;5.70;1.98;;;;;;;;;;5096974;28;20028;-69
2023/09/06 12:47:56;;;;;;;5.35;2.20;;;;;;;;;;5095299;28;20028;-70
2023/09/06 12:50:22;;;;;;;3.65;1.90;;;;;;;;;;5107938;28;20035;-69
2023/09/06 12:52:47;;;;;;;3.10;2.00;;;;;;;;;;5095719;28;20043;-70
2023/09/06 12:55:13;;;;;;;3.03;1.98;;;;;;;;;;5096936;28;20023;-69
2023/09/06 12:57:38;;;;;;;3.53;2.00;;;;;;;;;;5095768;28;20474;-71
2023/09/06 13:00:07;;;;;;;3.65;2.20;;;;;;;;;;5107028;28;20042;-69
2023/09/06 13:02:33;;;;;;;3.28;2.05;;;;;;;;;;5093409;28;20103;-69
2023/09/06 13:04:58;;;;;;;3.97;2.55;;;;;;;;;;5111683;28;20110;-68
2023/09/06 13:07:23;;;;;;;5.20;2.40;;;;;;;;;;5098924;28;20020;-69
2023/09/06 13:09:49;;;;;;;3.87;2.20;;;;;;;;;;5098220;28;20261;-69
2023/09/06 13:12:14;;;;;;;3.55;2.28;;;;;;;;;;5111196;28;20060;-68
2023/09/06 13:14:39;;;;;;;5.22;2.30;;;;;;;;;;5103046;28;20501;-70
2023/09/06 13:17:05;;;;;;;4.17;2.53;;;;;;;;;;5100700;28;20519;-69
2023/09/06 13:19:31;;;;;;;3.63;2.40;;;;;;;;;;5109533;28;20265;-69
2023/09/06 13:21:56;;;;;;;4.53;2.53;;;;;;;;;;5108216;28;20118;-69
2023/09/06 13:24:21;;;;;;;3.43;2.47;;;;;;;;;;5104743;28;20142;-69
2023/09/06 13:26:48;;;;;;;6.00;2.43;;;;;;;;;;5099953;28;20262;-69
2023/09/06 13:29:13;;;;;;;4.15;2.13;;;;;;;;;;5102412;28;20026;-70
2023/09/06 13:31:39;;;;;;;3.30;2.47;;;;;;;;;;5101609;28;20020;-68
2023/09/06 13:34:04;;;;;;;3.47;2.30;;;;;;;;;;5101183;28;21352;-69
2023/09/06 13:36:36;;;;;;;4.27;2.20;;;;;;;;;;5108648;28;20301;-69
2023/09/06 13:39:03;;;;;;;3.75;2.30;;;;;;;;;;5104675;28;20067;-69
2023/09/06 13:41:29;;;;;;;4.72;2.25;;;;;;;;;;5108243;28;20089;-69
2023/09/06 13:43:54;;;;;;;4.70;2.63;;;;;;;;;;5103864;28;20047;-69
2023/09/06 13:46:19;;;;;;;4.13;2.70;;;;;;;;;;5103372;28;20624;-69
2023/09/06 13:48:44;;;;;;;5.47;2.58;;;;;;;;;;5091957;28;20054;-69
2023/09/06 13:51:10;;;;;;;3.60;2.40;;;;;;;;;;5105671;28;20027;-69
2023/09/06 13:53:35;;;;;;;5.13;2.40;;;;;;;;;;5095001;28;20024;-69
2023/09/06 13:56:00;;;;;;;4.40;2.43;;;;;;;;;;5094881;28;20020;-69
2023/09/06 13:58:26;;;;;;;6.33;2.33;;;;;;;;;;5094580;28;20529;-69
2023/09/06 14:00:55;;;;;;;4.00;2.65;;;;;;;;;;5095006;28;20369;-69
2023/09/06 14:03:21;;;;;;;3.47;2.45;;;;;;;;;;5097925;28;20389;-68
2023/09/06 14:05:46;;;;;;;5.20;2.83;;;;;;;;;;5111437;28;20028;-69
2023/09/06 14:08:12;;;;;;;4.83;2.30;;;;;;;;;;5110602;28;20428;-70
2023/09/06 14:10:37;;;;;;;4.43;2.23;;;;;;;;;;5111321;28;20186;-69
2023/09/06 14:13:02;;;;;;;3.70;2.23;;;;;;;;;;5105709;28;20032;-69
2023/09/06 14:15:27;;;;;;;3.28;2.10;;;;;;;;;;5090963;28;20032;-69
2023/09/06 14:17:53;;;;;;;5.37;2.30;;;;;;;;;;5110682;28;20035;-69
2023/09/06 14:20:18;;;;;;;3.70;1.83;;;;;;;;;;5111419;28;20028;-69
2023/09/06 14:22:43;;;;;;;4.30;2.63;;;;;;;;;;5110394;28;20030;-68
2023/09/06 14:25:08;;;;;;;5.03;2.60;;;;;;;;;;5110970;28;20364;-69
2023/09/06 14:27:34;;;;;;;6.53;2.30;;;;;;;;;;5110268;28;20296;-69
2023/09/06 14:29:59;;;;;;;3.90;2.60;;;;;;;;;;5111054;28;20107;-68
2023/09/06 14:32:24;;;;;;;4.53;2.63;;;;;;;;;;5109815;28;20032;-68
2023/09/06 14:34:50;;;;;;;5.03;2.50;;;;;;;;;;5110921;28;20144;-69
2023/09/06 14:37:16;;;;;;;3.67;2.22;;;;;;;;;;5109524;28;20027;-69
2023/09/06 14:39:41;;;;;;;3.80;2.50;;;;;;;;;;5109402;28;20039;-69